Time;durP1;ratioP1;P1;durP2;ratioP2;P2;SDS_P1;SDS_P2;PMS_P1;PMS_P2;Temp;Humidity;BMP_temperature;BMP_pressure;BME280_temperature;BME280_humidity;BME280_pressure;Samples;Min_cycle;Max_cycle;Signal;HPM_P1;HPM_P2
2022/05/01 00:00:37;;;;;;;0.10;0.10;;;;;;;;;;4807055;29;20082;-93
2022/05/01 00:03:03;;;;;;;0.10;0.10;;;;;;;;;;4792111;29;20093;-95
2022/05/01 00:05:29;;;;;;;0.10;0.10;;;;;;;;;;4806851;29;20473;-94
2022/05/01 00:07:55;;;;;;;0.10;0.10;;;;;;;;;;4806818;29;20134;-93
2022/05/01 00:10:21;;;;;;;0.10;0.10;;;;;;;;;;4807000;29;20046;-94
2022/05/01 00:12:47;;;;;;;0.10;0.10;;;;;;;;;;4806574;29;20046;-94
2022/05/01 00:15:13;;;;;;;0.10;0.10;;;;;;;;;;4807069;29;20056;-93
2022/05/01 00:17:42;;;;;;;0.43;0.20;;;;;;;;;;4791977;29;20115;-92
2022/05/01 00:20:09;;;;;;;0.10;0.10;;;;;;;;;;4809079;29;20507;-93
2022/05/01 00:22:35;;;;;;;0.10;0.10;;;;;;;;;;4794831;29;20043;-92
2022/05/01 00:25:01;;;;;;;0.10;0.10;;;;;;;;;;4821747;29;20045;-90
2022/05/01 00:27:27;;;;;;;0.10;0.10;;;;;;;;;;4813813;29;20054;-89
2022/05/01 00:29:53;;;;;;;0.10;0.10;;;;;;;;;;4822494;29;20054;-93
2022/05/01 00:32:19;;;;;;;0.10;0.10;;;;;;;;;;4808917;29;20049;-92
2022/05/01 00:37:31;;;;;;;0.10;0.10;;;;;;;;;;4828768;29;20034;-90
2022/05/01 00:39:57;;;;;;;0.13;0.13;;;;;;;;;;4801806;29;20282;-93
2022/05/01 00:42:24;;;;;;;0.10;0.10;;;;;;;;;;4806195;29;20056;-93
2022/05/01 00:44:51;;;;;;;0.10;0.10;;;;;;;;;;4791163;29;20055;-94
2022/05/01 00:47:18;;;;;;;0.20;0.20;;;;;;;;;;4806130;29;20050;-93
2022/05/01 00:49:45;;;;;;;0.10;0.10;;;;;;;;;;4806146;29;20088;-92
2022/05/01 00:52:11;;;;;;;0.10;0.10;;;;;;;;;;4805920;29;20049;-92
2022/05/01 00:54:40;;;;;;;0.10;0.10;;;;;;;;;;4790824;29;20176;-91
2022/05/01 00:57:06;;;;;;;0.17;0.17;;;;;;;;;;4790816;29;20122;-93
2022/05/01 00:59:32;;;;;;;0.10;0.10;;;;;;;;;;4791050;29;20110;-93
2022/05/01 01:01:58;;;;;;;0.10;0.10;;;;;;;;;;4805656;29;20049;-92
2022/05/01 01:04:24;;;;;;;0.10;0.10;;;;;;;;;;4805708;29;20129;-95
2022/05/01 01:06:50;;;;;;;0.10;0.10;;;;;;;;;;4805726;29;20043;-92
2022/05/01 01:09:17;;;;;;;0.10;0.10;;;;;;;;;;4790593;29;20129;-91
2022/05/01 01:11:43;;;;;;;0.13;0.13;;;;;;;;;;4790611;29;20047;-91
2022/05/01 01:14:09;;;;;;;0.10;0.10;;;;;;;;;;4805352;29;20088;-90
2022/05/01 01:16:36;;;;;;;0.10;0.10;;;;;;;;;;4790685;29;20039;-92
2022/05/01 01:19:05;;;;;;;0.10;0.10;;;;;;;;;;4790843;29;20054;-93
2022/05/01 01:21:31;;;;;;;0.10;0.10;;;;;;;;;;4790540;29;20055;-93
2022/05/01 01:23:58;;;;;;;0.10;0.10;;;;;;;;;;4790653;29;20050;-92
2022/05/01 01:26:23;;;;;;;0.10;0.10;;;;;;;;;;4790348;29;20054;-93
2022/05/01 01:28:49;;;;;;;0.10;0.10;;;;;;;;;;4790197;29;20633;-92
2022/05/01 01:34:01;;;;;;;0.10;0.10;;;;;;;;;;4805140;29;20054;-92
2022/05/01 01:36:28;;;;;;;0.10;0.10;;;;;;;;;;4805434;29;20097;-93
2022/05/01 01:38:54;;;;;;;0.10;0.10;;;;;;;;;;4805238;29;20057;-92
2022/05/01 01:41:25;;;;;;;0.10;0.10;;;;;;;;;;4790232;29;20218;-92
2022/05/01 01:43:53;;;;;;;0.10;0.10;;;;;;;;;;4790322;29;20051;-93
2022/05/01 01:46:19;;;;;;;0.20;0.20;;;;;;;;;;4805146;29;20051;-92
2022/05/01 01:48:48;;;;;;;0.10;0.10;;;;;;;;;;4790071;29;20179;-93
2022/05/01 01:51:14;;;;;;;0.10;0.10;;;;;;;;;;4790701;29;20043;-94
2022/05/01 01:53:40;;;;;;;0.10;0.10;;;;;;;;;;4805414;29;20123;-92
2022/05/01 01:56:09;;;;;;;0.10;0.10;;;;;;;;;;4790059;29;20132;-91
2022/05/01 01:58:36;;;;;;;0.20;0.20;;;;;;;;;;4805057;29;20062;-91
2022/05/01 02:01:02;;;;;;;0.10;0.10;;;;;;;;;;4805038;29;20393;-92
2022/05/01 02:03:28;;;;;;;0.10;0.10;;;;;;;;;;4805071;29;20503;-91
2022/05/01 02:05:54;;;;;;;0.10;0.10;;;;;;;;;;4790142;29;20051;-92
2022/05/01 02:08:20;;;;;;;0.10;0.10;;;;;;;;;;4805016;29;20111;-92
2022/05/01 02:10:47;;;;;;;0.10;0.10;;;;;;;;;;4804934;29;20096;-92
2022/05/01 02:13:13;;;;;;;0.10;0.10;;;;;;;;;;4789653;29;20133;-92
2022/05/01 02:15:39;;;;;;;0.10;0.10;;;;;;;;;;4789996;29;20043;-92
2022/05/01 02:18:05;;;;;;;0.10;0.10;;;;;;;;;;4789925;29;20376;-92
2022/05/01 02:23:19;;;;;;;0.10;0.10;;;;;;;;;;4804888;29;20054;-92
2022/05/01 02:25:45;;;;;;;0.20;0.20;;;;;;;;;;4789970;29;20050;-92
2022/05/01 02:28:11;;;;;;;0.10;0.10;;;;;;;;;;4789982;29;20081;-92
2022/05/01 02:30:38;;;;;;;0.10;0.10;;;;;;;;;;4804856;29;20483;-92
2022/05/01 02:33:06;;;;;;;0.10;0.10;;;;;;;;;;4789504;29;20039;-91
2022/05/01 02:35:32;;;;;;;0.10;0.10;;;;;;;;;;4789730;29;20510;-91
2022/05/01 02:37:58;;;;;;;0.13;0.13;;;;;;;;;;4789680;29;20054;-91
2022/05/01 02:40:24;;;;;;;0.10;0.10;;;;;;;;;;4789596;29;20047;-91
2022/05/01 02:42:50;;;;;;;0.10;0.10;;;;;;;;;;4804797;29;20084;-91
2022/05/01 02:45:17;;;;;;;0.10;0.10;;;;;;;;;;4789546;29;20130;-92
2022/05/01 02:47:43;;;;;;;0.10;0.10;;;;;;;;;;4805010;29;20092;-92
2022/05/01 02:50:09;;;;;;;0.20;0.20;;;;;;;;;;4808000;29;20035;-91
2022/05/01 02:52:35;;;;;;;0.10;0.10;;;;;;;;;;4792985;29;20217;-92
2022/05/01 02:55:01;;;;;;;0.20;0.20;;;;;;;;;;4792825;29;20098;-92
2022/05/01 02:57:27;;;;;;;0.10;0.10;;;;;;;;;;4793062;29;20050;-92
2022/05/01 02:59:53;;;;;;;0.10;0.10;;;;;;;;;;4807869;29;20503;-92
2022/05/01 03:02:19;;;;;;;0.10;0.10;;;;;;;;;;4792517;29;20095;-92
2022/05/01 03:04:45;;;;;;;0.10;0.10;;;;;;;;;;4807716;29;20047;-92
2022/05/01 03:07:12;;;;;;;0.10;0.10;;;;;;;;;;4808025;29;20400;-94
2022/05/01 03:09:38;;;;;;;0.20;0.20;;;;;;;;;;4792614;29;20039;-93
2022/05/01 03:12:05;;;;;;;0.10;0.10;;;;;;;;;;4807669;29;20047;-93
2022/05/01 03:14:31;;;;;;;0.10;0.10;;;;;;;;;;4807962;29;20400;-94
2022/05/01 03:16:57;;;;;;;0.10;0.10;;;;;;;;;;4807582;29;20042;-94
2022/05/01 03:22:13;;;;;;;0.10;0.10;;;;;;;;;;4807505;29;20046;-93
2022/05/01 03:24:39;;;;;;;0.10;0.10;;;;;;;;;;4792552;29;20039;-93
2022/05/01 03:27:05;;;;;;;0.10;0.10;;;;;;;;;;4807434;29;20047;-93
2022/05/01 03:29:32;;;;;;;0.10;0.10;;;;;;;;;;4792180;29;20089;-91
2022/05/01 03:31:58;;;;;;;0.10;0.10;;;;;;;;;;4807356;29;20043;-92
2022/05/01 03:34:26;;;;;;;0.10;0.10;;;;;;;;;;4792243;29;20042;-93
2022/05/01 03:36:53;;;;;;;0.10;0.10;;;;;;;;;;4807388;29;20082;-92
2022/05/01 03:39:19;;;;;;;0.10;0.10;;;;;;;;;;4792020;29;20090;-93
2022/05/01 03:41:45;;;;;;;0.10;0.10;;;;;;;;;;4807116;29;20050;-92
2022/05/01 03:44:11;;;;;;;0.20;0.20;;;;;;;;;;4792208;29;20073;-93
2022/05/01 03:46:38;;;;;;;0.10;0.10;;;;;;;;;;4792088;29;20107;-92
2022/05/01 03:49:06;;;;;;;0.10;0.10;;;;;;;;;;4791690;29;20060;-92
2022/05/01 03:51:33;;;;;;;0.10;0.10;;;;;;;;;;4792046;29;20107;-94
2022/05/01 03:54:02;;;;;;;0.10;0.10;;;;;;;;;;4791715;29;20054;-93
2022/05/01 03:56:28;;;;;;;0.10;0.10;;;;;;;;;;4791468;29;20055;-91
2022/05/01 03:58:54;;;;;;;0.10;0.10;;;;;;;;;;4806236;29;20054;-93
2022/05/01 04:01:20;;;;;;;0.10;0.10;;;;;;;;;;4791257;29;20047;-93
2022/05/01 04:03:46;;;;;;;0.10;0.10;;;;;;;;;;4806624;29;20050;-93
2022/05/01 04:06:12;;;;;;;0.10;0.10;;;;;;;;;;4791780;29;20046;-92
2022/05/01 04:08:39;;;;;;;0.10;0.10;;;;;;;;;;4791399;29;20089;-93
2022/05/01 04:11:05;;;;;;;0.10;0.10;;;;;;;;;;4791417;29;20050;-92
2022/05/01 04:13:32;;;;;;;0.10;0.10;;;;;;;;;;4791376;29;20129;-93
2022/05/01 04:15:58;;;;;;;0.10;0.10;;;;;;;;;;4791738;29;20141;-96
2022/05/01 04:18:25;;;;;;;0.10;0.10;;;;;;;;;;4806997;29;20181;-95
2022/05/01 04:20:52;;;;;;;0.10;0.10;;;;;;;;;;4791915;29;20449;-94
2022/05/01 04:23:20;;;;;;;0.10;0.10;;;;;;;;;;4792014;29;20051;-94
2022/05/01 04:25:51;;;;;;;0.10;0.10;;;;;;;;;;4872421;24;21502;-93
2022/05/01 04:28:17;;;;;;;0.10;0.10;;;;;;;;;;4814060;29;20066;-92
2022/05/01 04:30:43;;;;;;;0.10;0.10;;;;;;;;;;4797173;29;20114;-89
2022/05/01 04:33:15;;;;;;;0.10;0.10;;;;;;;;;;4809286;29;20049;-92
2022/05/01 04:35:45;;;;;;;0.10;0.10;;;;;;;;;;4797366;29;20053;-93
2022/05/01 04:38:12;;;;;;;0.10;0.10;;;;;;;;;;4796988;29;20121;-94
2022/05/01 04:40:39;;;;;;;0.10;0.10;;;;;;;;;;4799509;29;20041;-90
2022/05/01 04:43:06;;;;;;;0.10;0.10;;;;;;;;;;4802634;29;20046;-90
2022/05/01 04:45:32;;;;;;;0.10;0.10;;;;;;;;;;4807436;29;20057;-95
2022/05/01 04:48:02;;;;;;;0.10;0.10;;;;;;;;;;4782530;29;20046;-95
2022/05/01 04:50:28;;;;;;;0.10;0.10;;;;;;;;;;4794617;29;20039;-90
2022/05/01 04:52:54;;;;;;;0.10;0.10;;;;;;;;;;4822675;29;20032;-91
2022/05/01 04:55:20;;;;;;;0.10;0.10;;;;;;;;;;4804532;29;20081;-92
2022/05/01 04:57:46;;;;;;;0.10;0.10;;;;;;;;;;4793669;29;20435;-92
2022/05/01 05:00:13;;;;;;;0.10;0.10;;;;;;;;;;4779324;29;20053;-92
2022/05/01 05:02:41;;;;;;;0.10;0.10;;;;;;;;;;4790377;29;20407;-93
2022/05/01 05:05:08;;;;;;;0.10;0.10;;;;;;;;;;4793277;29;20079;-93
2022/05/01 05:07:34;;;;;;;0.10;0.10;;;;;;;;;;4808533;29;20095;-92
2022/05/01 05:10:00;;;;;;;0.10;0.10;;;;;;;;;;4808698;29;20403;-92
2022/05/01 05:12:26;;;;;;;0.10;0.10;;;;;;;;;;4793497;29;20421;-92
2022/05/01 05:14:55;;;;;;;0.10;0.10;;;;;;;;;;4790266;29;20049;-92
2022/05/01 05:17:20;;;;;;;0.10;0.10;;;;;;;;;;4776488;29;20057;-90
2022/05/01 05:19:47;;;;;;;0.10;0.10;;;;;;;;;;4776394;29;20047;-91
2022/05/01 05:22:14;;;;;;;0.10;0.10;;;;;;;;;;4775596;29;20104;-91
2022/05/01 05:24:41;;;;;;;0.10;0.10;;;;;;;;;;4791406;29;20407;-91
2022/05/01 05:27:08;;;;;;;0.10;0.10;;;;;;;;;;4807328;29;20072;-92
2022/05/01 05:29:34;;;;;;;0.10;0.10;;;;;;;;;;4826684;29;20050;-91
2022/05/01 05:32:00;;;;;;;0.10;0.10;;;;;;;;;;4801018;29;20043;-91
2022/05/01 05:34:26;;;;;;;0.10;0.10;;;;;;;;;;4807839;29;20050;-92
2022/05/01 05:36:52;;;;;;;0.10;0.10;;;;;;;;;;4820903;29;20499;-92
2022/05/01 05:39:18;;;;;;;0.10;0.10;;;;;;;;;;4804827;29;20054;-92
2022/05/01 05:41:44;;;;;;;0.10;0.10;;;;;;;;;;4820390;29;20104;-94
2022/05/01 05:44:11;;;;;;;0.80;0.20;;;;;;;;;;4807985;29;20137;-93
2022/05/01 05:46:37;;;;;;;0.10;0.10;;;;;;;;;;4823427;29;20495;-91
2022/05/01 05:49:03;;;;;;;0.10;0.10;;;;;;;;;;4808051;29;20050;-92
2022/05/01 05:51:29;;;;;;;0.10;0.10;;;;;;;;;;4823148;29;20046;-93
2022/05/01 05:53:57;;;;;;;0.10;0.10;;;;;;;;;;4816090;29;20130;-94
2022/05/01 05:56:23;;;;;;;0.10;0.10;;;;;;;;;;4805020;29;20045;-94
2022/05/01 05:58:49;;;;;;;0.10;0.10;;;;;;;;;;4817219;29;20544;-93
2022/05/01 06:01:15;;;;;;;0.10;0.10;;;;;;;;;;4822597;29;20405;-95
2022/05/01 06:03:41;;;;;;;0.10;0.10;;;;;;;;;;4820118;29;20519;-95
2022/05/01 06:06:07;;;;;;;0.10;0.10;;;;;;;;;;4819679;29;20066;-94
2022/05/01 06:08:38;;;;;;;0.10;0.10;;;;;;;;;;4808242;29;20050;-95
2022/05/01 06:11:04;;;;;;;0.30;0.30;;;;;;;;;;4807509;29;20075;-94
2022/05/01 06:13:30;;;;;;;0.17;0.17;;;;;;;;;;4808206;29;20050;-95
2022/05/01 06:15:57;;;;;;;0.10;0.10;;;;;;;;;;4807338;29;20096;-94
2022/05/01 06:18:23;;;;;;;0.10;0.10;;;;;;;;;;4822995;29;20053;-93
2022/05/01 06:20:50;;;;;;;0.10;0.10;;;;;;;;;;4808152;29;20043;-94
2022/05/01 06:23:16;;;;;;;0.10;0.10;;;;;;;;;;4809210;29;20306;-95
2022/05/01 06:25:46;;;;;;;0.20;0.20;;;;;;;;;;4812211;29;20042;-94
2022/05/01 06:28:15;;;;;;;0.20;0.20;;;;;;;;;;4799929;29;20210;-96
2022/05/01 06:30:43;;;;;;;0.10;0.10;;;;;;;;;;4799357;29;20077;-93
2022/05/01 06:33:10;;;;;;;0.10;0.10;;;;;;;;;;4815178;29;20049;-94
2022/05/01 06:35:36;;;;;;;0.10;0.10;;;;;;;;;;4814310;29;20046;-93
2022/05/01 06:38:02;;;;;;;0.10;0.10;;;;;;;;;;4814341;29;20088;-95
2022/05/01 06:40:28;;;;;;;0.10;0.10;;;;;;;;;;4799388;29;20077;-93
2022/05/01 06:42:56;;;;;;;0.20;0.20;;;;;;;;;;4799642;29;20078;-92
2022/05/01 06:45:21;;;;;;;0.10;0.10;;;;;;;;;;4814002;29;20096;-91
2022/05/01 06:47:47;;;;;;;0.20;0.20;;;;;;;;;;4813753;29;20087;-93
2022/05/01 06:50:14;;;;;;;0.10;0.10;;;;;;;;;;4813461;29;20052;-92
2022/05/01 06:52:42;;;;;;;0.30;0.30;;;;;;;;;;4799579;29;20056;-93
2022/05/01 06:55:09;;;;;;;0.20;0.20;;;;;;;;;;4799510;29;20094;-93
2022/05/01 06:57:35;;;;;;;0.17;0.17;;;;;;;;;;4799411;29;20053;-92
2022/05/01 07:00:01;;;;;;;0.10;0.10;;;;;;;;;;4799041;29;20128;-92
2022/05/01 07:02:27;;;;;;;0.10;0.10;;;;;;;;;;4798598;29;20562;-94
2022/05/01 07:04:53;;;;;;;0.10;0.10;;;;;;;;;;4814069;29;20049;-93
2022/05/01 07:07:19;;;;;;;0.10;0.10;;;;;;;;;;4813938;29;20050;-93
2022/05/01 07:09:45;;;;;;;0.17;0.17;;;;;;;;;;4798899;29;20606;-92
2022/05/01 07:12:11;;;;;;;0.10;0.10;;;;;;;;;;4811092;29;20042;-93
2022/05/01 07:14:40;;;;;;;0.45;0.45;;;;;;;;;;4798207;29;20053;-92
2022/05/01 07:17:06;;;;;;;0.10;0.10;;;;;;;;;;4798412;29;20449;-92
2022/05/01 07:19:32;;;;;;;0.20;0.20;;;;;;;;;;4798109;29;20045;-92
2022/05/01 07:21:58;;;;;;;0.10;0.10;;;;;;;;;;4813057;29;20406;-92
2022/05/01 07:24:24;;;;;;;0.15;0.15;;;;;;;;;;4813077;29;20042;-92
2022/05/01 07:26:50;;;;;;;0.17;0.17;;;;;;;;;;4813612;29;20567;-92
2022/05/01 07:29:16;;;;;;;0.10;0.10;;;;;;;;;;4809910;29;20056;-92
2022/05/01 07:31:42;;;;;;;0.10;0.10;;;;;;;;;;4809915;29;20042;-95
2022/05/01 07:34:09;;;;;;;0.10;0.10;;;;;;;;;;4794723;29;20042;-92
2022/05/01 07:36:35;;;;;;;0.10;0.10;;;;;;;;;;4794920;29;20551;-91
2022/05/01 07:39:01;;;;;;;0.10;0.10;;;;;;;;;;4825315;29;20483;-93
2022/05/01 07:41:27;;;;;;;2.03;0.30;;;;;;;;;;4794891;29;20475;-91
2022/05/01 07:43:55;;;;;;;0.90;0.90;;;;;;;;;;4795971;29;20088;-92
2022/05/01 07:46:25;;;;;;;0.37;0.37;;;;;;;;;;4797496;29;20071;-92
2022/05/01 07:48:51;;;;;;;0.15;0.15;;;;;;;;;;4824564;29;20051;-92
2022/05/01 07:51:17;;;;;;;0.10;0.10;;;;;;;;;;4809303;29;20564;-92
2022/05/01 07:53:43;;;;;;;0.20;0.20;;;;;;;;;;4809224;29;20050;-91
2022/05/01 07:56:09;;;;;;;0.10;0.10;;;;;;;;;;4794465;29;20049;-92
2022/05/01 07:58:35;;;;;;;0.20;0.20;;;;;;;;;;4809250;29;20043;-93
2022/05/01 08:01:03;;;;;;;0.20;0.20;;;;;;;;;;4794109;29;20046;-91
2022/05/01 08:06:14;;;;;;;0.30;0.30;;;;;;;;;;4811008;29;20054;-93
2022/05/01 08:08:40;;;;;;;0.20;0.20;;;;;;;;;;4793740;29;20058;-92
2022/05/01 08:11:07;;;;;;;0.20;0.20;;;;;;;;;;4809371;29;20042;-92
2022/05/01 08:13:33;;;;;;;0.20;0.20;;;;;;;;;;4808972;29;20046;-91
2022/05/01 08:15:59;;;;;;;0.10;0.10;;;;;;;;;;4793530;29;20073;-91
2022/05/01 08:21:10;;;;;;;0.10;0.10;;;;;;;;;;4810950;29;20054;-91
2022/05/01 08:23:36;;;;;;;0.10;0.10;;;;;;;;;;4793804;29;20046;-92
2022/05/01 08:26:03;;;;;;;0.10;0.10;;;;;;;;;;4808930;29;20568;-92
2022/05/01 08:28:35;;;;;;;0.10;0.10;;;;;;;;;;4779107;29;20061;-92
2022/05/01 08:31:01;;;;;;;0.20;0.20;;;;;;;;;;4778676;29;20050;-91
2022/05/01 08:33:27;;;;;;;0.20;0.20;;;;;;;;;;4779354;29;20049;-91
2022/05/01 08:35:54;;;;;;;0.10;0.10;;;;;;;;;;4779116;29;20042;-94
2022/05/01 08:38:20;;;;;;;0.20;0.20;;;;;;;;;;4793914;29;20053;-92
2022/05/01 08:40:47;;;;;;;0.10;0.10;;;;;;;;;;4794094;29;20099;-91
2022/05/01 08:43:16;;;;;;;0.10;0.10;;;;;;;;;;4779693;29;20053;-90
2022/05/01 08:45:59;;;;;;;0.30;0.30;;;;;;;;;;4779338;29;20494;-92
2022/05/01 08:48:39;;;;;;;0.20;0.20;;;;;;;;;;4802940;29;20110;-91
2022/05/01 08:51:06;;;;;;;0.30;0.30;;;;;;;;;;4795995;29;20069;-91
2022/05/01 08:53:32;;;;;;;0.20;0.20;;;;;;;;;;4800531;29;20042;-91
2022/05/01 08:56:01;;;;;;;0.10;0.10;;;;;;;;;;4779360;29;20086;-89
2022/05/01 08:58:27;;;;;;;0.10;0.10;;;;;;;;;;4786559;29;20560;-89
2022/05/01 09:00:53;;;;;;;0.15;0.15;;;;;;;;;;4794183;29;20050;-90
2022/05/01 09:03:19;;;;;;;0.20;0.20;;;;;;;;;;4796900;29;20050;-90
2022/05/01 09:05:45;;;;;;;0.10;0.10;;;;;;;;;;4792524;29;20046;-90
2022/05/01 09:08:11;;;;;;;0.20;0.20;;;;;;;;;;4792254;29;20051;-88
2022/05/01 09:10:37;;;;;;;0.20;0.20;;;;;;;;;;4777660;29;20384;-90
2022/05/01 09:13:03;;;;;;;0.10;0.10;;;;;;;;;;4777707;29;20038;-89
2022/05/01 09:15:29;;;;;;;0.10;0.10;;;;;;;;;;4777816;29;20046;-89
2022/05/01 09:18:02;;;;;;;0.10;0.10;;;;;;;;;;4792554;29;20084;-88
2022/05/01 09:20:28;;;;;;;0.10;0.10;;;;;;;;;;4777696;29;20089;-87
2022/05/01 09:22:55;;;;;;;0.10;0.10;;;;;;;;;;4777148;29;20078;-87
2022/05/01 09:25:27;;;;;;;0.10;0.10;;;;;;;;;;4778065;29;20107;-89
2022/05/01 09:27:57;;;;;;;0.10;0.10;;;;;;;;;;4838426;29;20062;-91
2022/05/01 09:30:33;;;;;;;0.20;0.20;;;;;;;;;;4810628;29;20132;-92
2022/05/01 09:33:01;;;;;;;0.10;0.10;;;;;;;;;;4826177;29;20053;-89
2022/05/01 09:35:36;;;;;;;0.10;0.10;;;;;;;;;;4809809;29;20421;-89
2022/05/01 09:38:18;;;;;;;0.20;0.20;;;;;;;;;;4810755;29;20049;-90
2022/05/01 09:40:44;;;;;;;;;;;;;;;;;;4811338;29;20253;-89
2022/05/01 09:43:16;;;;;;;0.20;0.20;;;;;;;;;;4825589;29;20188;-88
2022/05/01 09:45:42;;;;;;;0.10;0.10;;;;;;;;;;4810687;29;20046;-89
2022/05/01 09:48:22;;;;;;;0.10;0.10;;;;;;;;;;4825367;29;20520;-89
2022/05/01 09:50:48;;;;;;;0.10;0.10;;;;;;;;;;4811435;29;20075;-89
2022/05/01 09:53:14;;;;;;;0.20;0.20;;;;;;;;;;4810042;29;20042;-89
2022/05/01 09:55:40;;;;;;;0.20;0.20;;;;;;;;;;4825031;29;20494;-88
2022/05/01 09:58:11;;;;;;;0.10;0.10;;;;;;;;;;4824053;29;20513;-89
2022/05/01 10:00:44;;;;;;;0.10;0.10;;;;;;;;;;4810316;29;20410;-89
2022/05/01 10:03:19;;;;;;;0.10;0.10;;;;;;;;;;4828497;29;20049;-90
2022/05/01 10:05:46;;;;;;;0.10;0.10;;;;;;;;;;4825363;29;20085;-88
2022/05/01 10:08:14;;;;;;;0.10;0.10;;;;;;;;;;4825973;29;20077;-89
2022/05/01 10:10:40;;;;;;;0.10;0.10;;;;;;;;;;4825664;29;20054;-88
2022/05/01 10:13:06;;;;;;;0.20;0.20;;;;;;;;;;4825367;29;20046;-90
2022/05/01 10:15:33;;;;;;;0.10;0.10;;;;;;;;;;4810060;29;20111;-90
2022/05/01 10:17:59;;;;;;;0.10;0.10;;;;;;;;;;4811221;29;20045;-90
2022/05/01 10:20:25;;;;;;;0.20;0.20;;;;;;;;;;4810484;29;20131;-90
2022/05/01 10:22:51;;;;;;;0.10;0.10;;;;;;;;;;4809788;29;20134;-88
2022/05/01 10:25:17;;;;;;;0.10;0.10;;;;;;;;;;4839939;29;20045;-87
2022/05/01 10:27:47;;;;;;;0.20;0.20;;;;;;;;;;4824800;29;20106;-87
2022/05/01 10:33:21;;;;;;;0.10;0.10;;;;;;;;;;4827604;29;20110;-88
2022/05/01 10:35:57;;;;;;;0.10;0.10;;;;;;;;;;4840200;29;20069;-86
2022/05/01 10:38:26;;;;;;;0.20;0.20;;;;;;;;;;4824960;29;20440;-88
2022/05/01 10:40:56;;;;;;;0.10;0.10;;;;;;;;;;4824834;29;20046;-88
2022/05/01 10:43:24;;;;;;;0.10;0.10;;;;;;;;;;4824828;29;20046;-88
2022/05/01 10:45:50;;;;;;;0.10;0.10;;;;;;;;;;4824683;29;20046;-88
2022/05/01 10:48:21;;;;;;;0.20;0.20;;;;;;;;;;4825114;29;20113;-90
2022/05/01 10:50:49;;;;;;;0.10;0.10;;;;;;;;;;4809624;29;20041;-88
2022/05/01 10:53:16;;;;;;;0.10;0.10;;;;;;;;;;4809582;29;20046;-89
2022/05/01 10:55:45;;;;;;;0.10;0.10;;;;;;;;;;4824927;29;20053;-89
2022/05/01 10:58:21;;;;;;;0.10;0.10;;;;;;;;;;4839932;29;20053;-89
2022/05/01 11:00:47;;;;;;;0.10;0.10;;;;;;;;;;4824883;29;20050;-89
2022/05/01 11:03:21;;;;;;;0.20;0.20;;;;;;;;;;4809648;29;20048;-89
2022/05/01 11:05:50;;;;;;;0.10;0.10;;;;;;;;;;4824746;29;20140;-89
2022/05/01 11:08:16;;;;;;;0.10;0.10;;;;;;;;;;4824975;29;20498;-89
2022/05/01 11:10:42;;;;;;;0.10;0.10;;;;;;;;;;4812870;29;20095;-89
2022/05/01 11:13:08;;;;;;;0.10;0.10;;;;;;;;;;4812718;29;20483;-90
2022/05/01 11:15:34;;;;;;;0.10;0.10;;;;;;;;;;4828188;29;20098;-89
2022/05/01 11:18:00;;;;;;;0.10;0.10;;;;;;;;;;4827612;29;20046;-89
2022/05/01 11:20:27;;;;;;;0.10;0.10;;;;;;;;;;4842937;29;20053;-89
2022/05/01 11:22:52;;;;;;;0.13;0.13;;;;;;;;;;4812567;29;20045;-89
2022/05/01 11:25:31;;;;;;;0.10;0.10;;;;;;;;;;4827698;29;20049;-89
2022/05/01 11:27:57;;;;;;;0.10;0.10;;;;;;;;;;4842701;29;20141;-89
2022/05/01 11:30:26;;;;;;;0.10;0.10;;;;;;;;;;4812636;29;20082;-89
2022/05/01 11:33:09;;;;;;;0.10;0.10;;;;;;;;;;4842541;29;20149;-89
2022/05/01 11:35:58;;;;;;;0.10;0.10;;;;;;;;;;4827683;29;20046;-90
2022/05/01 11:38:24;;;;;;;0.10;0.10;;;;;;;;;;4835474;29;20053;-90
2022/05/01 11:40:55;;;;;;;0.10;0.10;;;;;;;;;;4812364;29;20509;-91
2022/05/01 11:43:21;;;;;;;0.10;0.10;;;;;;;;;;4827273;29;20050;-91
2022/05/01 11:45:47;;;;;;;0.10;0.10;;;;;;;;;;4827584;29;20060;-90
2022/05/01 11:48:17;;;;;;;0.20;0.20;;;;;;;;;;4827134;29;20053;-90
2022/05/01 11:50:44;;;;;;;0.10;0.10;;;;;;;;;;4827626;29;20046;-90
2022/05/01 11:53:23;;;;;;;0.10;0.10;;;;;;;;;;4812258;29;20053;-90
2022/05/01 12:04:24;;;;;;;0.10;0.10;;;;;;;;;;4829545;29;20049;-89
2022/05/01 12:06:56;;;;;;;0.10;0.10;;;;;;;;;;4827346;29;20050;-89
2022/05/01 12:09:24;;;;;;;0.10;0.10;;;;;;;;;;4826610;29;20045;-88
2022/05/01 12:11:50;;;;;;;0.10;0.10;;;;;;;;;;4826708;29;20038;-89
2022/05/01 12:14:16;;;;;;;0.10;0.10;;;;;;;;;;4841687;29;20372;-87
2022/05/01 12:16:42;;;;;;;0.10;0.10;;;;;;;;;;4826647;29;20045;-90
2022/05/01 12:19:08;;;;;;;0.20;0.20;;;;;;;;;;4826660;29;20046;-87
2022/05/01 12:21:35;;;;;;;0.10;0.10;;;;;;;;;;4810449;29;20121;-88
2022/05/01 12:24:02;;;;;;;0.10;0.10;;;;;;;;;;4826492;29;20510;-88
2022/05/01 12:26:28;;;;;;;0.10;0.10;;;;;;;;;;4826440;29;20410;-88
2022/05/01 12:28:54;;;;;;;0.10;0.10;;;;;;;;;;4826127;29;20054;-88
2022/05/01 12:31:20;;;;;;;0.10;0.10;;;;;;;;;;4826350;29;20094;-88
2022/05/01 12:33:53;;;;;;;0.10;0.10;;;;;;;;;;4811047;29;20038;-88
2022/05/01 12:36:25;;;;;;;0.10;0.10;;;;;;;;;;4811042;29;20163;-88
2022/05/01 12:38:51;;;;;;;;;;;;;;;;;;4826576;29;20062;-88
2022/05/01 12:44:01;;;;;;;0.10;0.10;;;;;;;;;;4819509;29;20498;-87
2022/05/01 12:46:28;;;;;;;0.10;0.10;;;;;;;;;;4822171;29;20046;-88
2022/05/01 12:48:54;;;;;;;0.10;0.10;;;;;;;;;;4823136;29;20050;-88
2022/05/01 12:51:20;;;;;;;0.10;0.10;;;;;;;;;;4823592;29;20050;-87
2022/05/01 12:53:46;;;;;;;0.22;0.22;;;;;;;;;;4807825;29;20054;-87
2022/05/01 12:56:16;;;;;;;0.10;0.10;;;;;;;;;;4822605;29;20054;-86
2022/05/01 12:58:42;;;;;;;0.10;0.10;;;;;;;;;;4826054;29;20082;-88
2022/05/01 13:01:08;;;;;;;0.10;0.10;;;;;;;;;;4827613;29;20049;-86
2022/05/01 13:03:36;;;;;;;0.10;0.10;;;;;;;;;;4823920;29;20455;-87
2022/05/01 13:06:12;;;;;;;0.10;0.10;;;;;;;;;;4824956;29;20055;-87
2022/05/01 13:08:37;;;;;;;0.10;0.10;;;;;;;;;;4810957;29;20386;-88
2022/05/01 13:11:23;;;;;;;0.10;0.10;;;;;;;;;;4809824;29;20044;-88
2022/05/01 13:13:49;;;;;;;0.10;0.10;;;;;;;;;;4823397;29;20543;-87
2022/05/01 13:16:16;;;;;;;0.10;0.10;;;;;;;;;;4822738;29;20142;-87
2022/05/01 13:18:42;;;;;;;0.10;0.10;;;;;;;;;;4807333;29;20082;-87
2022/05/01 13:21:08;;;;;;;0.10;0.10;;;;;;;;;;4807397;29;20085;-88
2022/05/01 13:23:34;;;;;;;0.10;0.10;;;;;;;;;;4822576;29;20116;-88
2022/05/01 13:26:01;;;;;;;0.10;0.10;;;;;;;;;;4807316;29;20125;-87
2022/05/01 13:28:29;;;;;;;0.10;0.10;;;;;;;;;;4806986;29;20591;-87
2022/05/01 13:30:55;;;;;;;0.10;0.10;;;;;;;;;;4792085;29;20046;-88
2022/05/01 13:33:22;;;;;;;0.10;0.10;;;;;;;;;;4807055;29;20046;-89
2022/05/01 13:35:48;;;;;;;0.10;0.10;;;;;;;;;;4792277;29;20217;-89
2022/05/01 13:38:15;;;;;;;0.10;0.10;;;;;;;;;;4792198;29;20129;-89
2022/05/01 13:46:09;;;;;;;0.20;0.20;;;;;;;;;;4807003;29;20146;-88
2022/05/01 13:48:35;;;;;;;0.10;0.10;;;;;;;;;;4791987;29;20133;-88
2022/05/01 13:51:02;;;;;;;0.10;0.10;;;;;;;;;;4807213;29;20752;-88
2022/05/01 13:53:28;;;;;;;0.10;0.10;;;;;;;;;;4791907;29;20046;-89
2022/05/01 13:55:54;;;;;;;0.10;0.10;;;;;;;;;;4807025;29;20039;-88
2022/05/01 13:58:20;;;;;;;0.10;0.10;;;;;;;;;;4807145;29;20046;-89
2022/05/01 14:00:46;;;;;;;0.10;0.10;;;;;;;;;;4791976;29;20050;-88
2022/05/01 14:03:12;;;;;;;0.10;0.10;;;;;;;;;;4807225;29;20054;-87
2022/05/01 14:05:39;;;;;;;0.10;0.10;;;;;;;;;;4807043;29;20049;-87
2022/05/01 14:08:05;;;;;;;0.20;0.20;;;;;;;;;;4791706;29;20130;-89
2022/05/01 14:10:32;;;;;;;0.10;0.10;;;;;;;;;;4806962;29;20045;-89
2022/05/01 14:12:59;;;;;;;0.70;0.50;;;;;;;;;;4791602;29;20043;-88
2022/05/01 14:15:25;;;;;;;0.10;0.10;;;;;;;;;;4791731;29;20053;-88
2022/05/01 14:17:52;;;;;;;0.10;0.10;;;;;;;;;;4792062;29;20050;-89
2022/05/01 14:20:18;;;;;;;0.10;0.10;;;;;;;;;;4807045;29;20410;-89
2022/05/01 14:22:44;;;;;;;0.10;0.10;;;;;;;;;;4791948;29;20115;-89
2022/05/01 14:25:10;;;;;;;0.10;0.10;;;;;;;;;;4807102;29;20487;-87
2022/05/01 14:27:35;;;;;;;0.20;0.20;;;;;;;;;;4791436;29;20475;-87
2022/05/01 14:30:01;;;;;;;0.10;0.10;;;;;;;;;;4806650;29;20047;-86
2022/05/01 14:32:33;;;;;;;0.10;0.10;;;;;;;;;;4806737;29;20186;-87
2022/05/01 14:35:00;;;;;;;0.10;0.10;;;;;;;;;;4806540;29;20046;-88
2022/05/01 14:37:35;;;;;;;0.20;0.20;;;;;;;;;;4806585;29;20125;-89
2022/05/01 14:40:03;;;;;;;0.10;0.10;;;;;;;;;;4806747;29;20460;-89
2022/05/01 14:42:31;;;;;;;0.10;0.10;;;;;;;;;;4791490;29;20151;-86
2022/05/01 14:45:00;;;;;;;0.20;0.20;;;;;;;;;;4793697;29;20133;-87
2022/05/01 14:47:26;;;;;;;0.10;0.10;;;;;;;;;;4809756;29;20054;-89
2022/05/01 14:50:00;;;;;;;0.10;0.10;;;;;;;;;;4794929;29;20049;-87
2022/05/01 14:52:27;;;;;;;0.32;0.20;;;;;;;;;;4794727;29;20091;-87
2022/05/01 14:54:53;;;;;;;0.10;0.10;;;;;;;;;;4794536;29;20046;-88
2022/05/01 14:57:20;;;;;;;0.10;0.10;;;;;;;;;;4809809;29;20380;-88
2022/05/01 15:08:12;;;;;;;0.10;0.10;;;;;;;;;;4809588;29;20106;-88
2022/05/01 15:10:40;;;;;;;0.10;0.10;;;;;;;;;;4794966;29;20431;-88
2022/05/01 15:13:06;;;;;;;0.10;0.10;;;;;;;;;;4794827;29;20051;-88
2022/05/01 15:15:51;;;;;;;0.10;0.10;;;;;;;;;;4809463;29;20130;-88
2022/05/01 15:18:21;;;;;;;0.10;0.10;;;;;;;;;;4809460;29;20110;-88
2022/05/01 15:20:49;;;;;;;0.10;0.10;;;;;;;;;;4794375;29;20062;-88
2022/05/01 15:23:19;;;;;;;0.10;0.10;;;;;;;;;;4809464;29;20244;-89
2022/05/01 15:25:55;;;;;;;0.10;0.10;;;;;;;;;;4794689;29;20043;-90
2022/05/01 15:28:21;;;;;;;0.10;0.10;;;;;;;;;;4809052;29;20084;-89